Time;durP1;ratioP1;P1;durP2;ratioP2;P2;SDS_P1;SDS_P2;PMS_P1;PMS_P2;Temp;Humidity;BMP_temperature;BMP_pressure;BME280_temperature;BME280_humidity;BME280_pressure;Samples;Min_cycle;Max_cycle;Signal;HPM_P1;HPM_P2
2021/01/19 00:00:30;;;;;;;32.67;22.23;;;1.80;95.50;;;;;;4970725;28;20527;-54
2021/01/19 00:02:56;;;;;;;36.85;21.50;;;2.00;95.30;;;;;;4982476;28;20364;-53
2021/01/19 00:05:23;;;;;;;40.05;24.10;;;1.90;95.20;;;;;;5007705;28;20205;-52
2021/01/19 00:07:50;;;;;;;30.42;21.60;;;2.00;95.20;;;;;;4976662;28;20241;-54
2021/01/19 00:10:16;;;;;;;32.40;21.45;;;2.00;95.00;;;;;;4977084;28;20220;-53
2021/01/19 00:12:43;;;;;;;37.42;23.58;;;2.00;95.10;;;;;;4979874;28;20240;-51
2021/01/19 00:15:10;;;;;;;36.00;22.75;;;2.60;95.40;;;;;;4975063;28;20214;-52
2021/01/19 00:17:37;;;;;;;31.05;20.50;;;2.10;95.20;;;;;;4981081;28;20206;-52
2021/01/19 00:20:05;;;;;;;31.70;20.05;;;2.10;95.00;;;;;;4975183;28;20206;-52
2021/01/19 00:22:32;;;;;;;32.75;20.83;;;2.10;94.80;;;;;;4978896;28;20443;-51
2021/01/19 00:25:02;;;;;;;31.85;21.25;;;2.10;94.70;;;;;;4975427;28;20564;-54
2021/01/19 00:27:29;;;;;;;30.08;18.67;;;2.00;94.80;;;;;;4980905;28;20308;-54
2021/01/19 00:29:55;;;;;;;35.30;21.02;;;1.80;95.20;;;;;;4977089;28;20261;-51
2021/01/19 00:32:22;;;;;;;30.45;18.65;;;1.90;95.30;;;;;;4980669;28;20212;-54
2021/01/19 00:34:48;;;;;;;37.30;22.85;;;1.90;95.20;;;;;;4980730;28;20233;-53
2021/01/19 00:37:15;;;;;;;35.88;21.98;;;1.90;95.30;;;;;;4982497;28;20226;-53
2021/01/19 00:39:42;;;;;;;29.17;18.55;;;1.90;95.40;;;;;;4982192;28;20479;-50
2021/01/19 00:42:09;;;;;;;31.52;20.27;;;1.90;95.50;;;;;;4978773;28;20209;-50
2021/01/19 00:44:35;;;;;;;28.05;18.80;;;1.90;95.40;;;;;;4984682;28;20296;-51
2021/01/19 00:47:02;;;;;;;26.50;17.35;;;1.90;95.60;;;;;;4979880;28;20523;-51
2021/01/19 00:49:28;;;;;;;28.63;18.35;;;2.00;95.50;;;;;;4983107;28;20233;-54
2021/01/19 00:51:55;;;;;;;31.20;18.80;;;1.80;95.40;;;;;;4979522;28;20209;-52
2021/01/19 00:54:21;;;;;;;22.65;16.88;;;2.20;95.60;;;;;;4982527;28;20214;-49
2021/01/19 00:56:48;;;;;;;24.50;17.90;;;2.00;95.30;;;;;;4979489;28;20289;-50
2021/01/19 00:59:14;;;;;;;27.83;17.38;;;1.90;95.30;;;;;;4981809;28;20232;-51
2021/01/19 01:01:46;;;;;;;30.08;19.98;;;1.80;95.60;;;;;;4980587;28;20209;-50
2021/01/19 01:04:12;;;;;;;29.50;19.20;;;2.00;95.50;;;;;;4983337;28;20233;-51
2021/01/19 01:06:39;;;;;;;25.90;18.45;;;2.10;95.30;;;;;;4978436;28;20291;-51
2021/01/19 01:09:07;;;;;;;25.83;16.52;;;2.00;95.30;;;;;;4981767;28;20229;-50
2021/01/19 01:11:43;;;;;;;25.60;16.52;;;2.00;95.50;;;;;;4979211;28;20844;-53
2021/01/19 01:14:11;;;;;;;27.30;18.80;;;1.90;95.50;;;;;;4973773;28;20217;-51
2021/01/19 01:16:39;;;;;;;26.45;18.33;;;2.00;95.50;;;;;;4974441;28;20228;-50
2021/01/19 01:19:08;;;;;;;29.00;19.25;;;2.20;95.30;;;;;;4981394;28;20209;-52
2021/01/19 01:21:39;;;;;;;25.88;17.05;;;2.30;95.10;;;;;;4979709;28;20209;-50
2021/01/19 01:24:06;;;;;;;27.95;17.92;;;2.20;95.10;;;;;;4982111;28;20381;-53
2021/01/19 01:26:34;;;;;;;30.52;18.45;;;2.00;95.30;;;;;;4981639;28;20209;-50
2021/01/19 01:29:02;;;;;;;29.45;19.15;;;1.90;95.60;;;;;;4982734;28;20229;-52
2021/01/19 01:31:28;;;;;;;29.35;19.27;;;2.30;96.00;;;;;;4980232;28;20793;-50
2021/01/19 01:33:55;;;;;;;35.33;21.92;;;1.50;96.60;;;;;;4981154;28;20212;-51
2021/01/19 01:36:21;;;;;;;31.02;19.65;;;1.60;96.70;;;;;;4982494;28;20220;-50
2021/01/19 01:38:48;;;;;;;27.63;18.15;;;1.70;96.60;;;;;;4979160;28;20210;-50
2021/01/19 01:41:17;;;;;;;27.63;17.45;;;1.90;96.50;;;;;;4981178;28;20212;-51
2021/01/19 01:43:43;;;;;;;32.13;19.83;;;2.00;95.70;;;;;;4978555;28;20311;-51
2021/01/19 01:46:11;;;;;;;27.58;17.27;;;2.00;95.90;;;;;;4981308;28;20210;-49
2021/01/19 01:48:39;;;;;;;32.78;18.52;;;2.00;95.70;;;;;;4978841;28;20233;-52
2021/01/19 01:51:08;;;;;;;29.00;19.23;;;1.70;95.50;;;;;;4982088;28;20311;-53
2021/01/19 01:53:39;;;;;;;25.45;17.95;;;2.40;95.50;;;;;;4978485;28;20404;-53
2021/01/19 01:56:09;;;;;;;27.70;18.92;;;2.00;95.50;;;;;;4980963;28;20220;-54
2021/01/19 01:58:37;;;;;;;30.30;17.70;;;2.10;95.60;;;;;;4975687;28;20213;-54
2021/01/19 02:01:04;;;;;;;31.75;19.90;;;2.20;95.60;;;;;;4981071;28;20269;-50
2021/01/19 02:03:32;;;;;;;25.73;17.63;;;2.20;95.40;;;;;;4980257;28;20246;-53
2021/01/19 02:05:59;;;;;;;31.65;19.10;;;2.10;95.40;;;;;;4977706;28;20212;-53
2021/01/19 02:08:47;;;;;;;33.60;20.55;;;2.00;95.60;;;;;;4977473;28;20240;-52
2021/01/19 02:11:25;;;;;;;31.17;20.35;;;2.00;95.70;;;;;;4978533;28;20201;-51
2021/01/19 02:14:19;;;;;;;28.88;19.70;;;2.20;95.60;;;;;;4971172;28;20211;-55
2021/01/19 02:16:45;;;;;;;35.22;22.90;;;2.10;95.40;;;;;;4978795;28;20213;-53
2021/01/19 02:20:02;;;;;;;32.40;20.98;;;2.20;95.20;;;;;;4976665;28;20214;-51
2021/01/19 02:22:46;;;;;;;32.25;19.63;;;2.30;95.20;;;;;;4957295;28;20210;-50
2021/01/19 02:25:32;;;;;;;38.20;20.77;;;2.40;94.90;;;;;;4976886;28;20213;-55
2021/01/19 02:28:33;;;;;;;33.63;20.77;;;2.30;94.90;;;;;;4972509;28;20206;-52
2021/01/19 02:31:24;;;;;;;29.77;20.92;;;2.40;95.00;;;;;;4979250;28;20270;-54
2021/01/19 02:34:08;;;;;;;31.45;20.50;;;2.40;95.00;;;;;;4977064;28;20216;-54
2021/01/19 02:36:50;;;;;;;28.77;20.08;;;2.50;94.60;;;;;;4979862;28;20494;-51
2021/01/19 02:39:49;;;;;;;39.92;21.25;;;2.60;94.90;;;;;;4979888;28;20217;-51
2021/01/19 02:42:23;;;;;;;29.52;20.38;;;2.20;94.90;;;;;;4980342;28;20503;-54
2021/01/19 02:44:53;;;;;;;35.50;21.13;;;2.30;95.30;;;;;;4978948;28;20217;-53
2021/01/19 02:47:20;;;;;;;26.55;18.98;;;2.60;95.00;;;;;;4978968;28;20221;-53
2021/01/19 02:49:47;;;;;;;36.80;20.25;;;2.60;94.50;;;;;;4974907;28;20264;-52
2021/01/19 02:52:15;;;;;;;25.20;18.52;;;2.60;94.30;;;;;;4977633;28;20240;-51
2021/01/19 02:54:43;;;;;;;24.48;17.10;;;2.60;94.30;;;;;;4977712;28;20205;-54
2021/01/19 02:57:28;;;;;;;28.35;18.92;;;2.50;94.50;;;;;;4977320;28;20821;-52
2021/01/19 03:00:06;;;;;;;28.92;20.23;;;2.40;94.60;;;;;;4980656;28;20217;-53
2021/01/19 03:02:35;;;;;;;24.98;17.50;;;2.40;94.60;;;;;;4977182;28;20220;-51
2021/01/19 03:05:05;;;;;;;26.60;16.52;;;2.20;95.20;;;;;;4984291;28;20456;-53
2021/01/19 03:07:35;;;;;;;26.45;17.88;;;2.20;95.30;;;;;;4983744;28;20205;-52
2021/01/19 03:10:04;;;;;;;24.92;16.88;;;2.20;95.30;;;;;;4986599;28;20240;-51
2021/01/19 03:12:33;;;;;;;26.48;16.25;;;2.30;95.40;;;;;;4978234;28;20260;-52
2021/01/19 03:15:00;;;;;;;20.73;15.05;;;2.50;95.10;;;;;;4979952;28;20213;-54
2021/01/19 03:17:26;;;;;;;19.75;15.13;;;2.60;94.70;;;;;;4986308;28;20736;-52
2021/01/19 03:19:53;;;;;;;24.33;14.75;;;2.80;94.50;;;;;;4983463;28;20281;-52
2021/01/19 03:22:19;;;;;;;20.20;15.82;;;2.30;94.80;;;;;;4982558;28;20221;-54
2021/01/19 03:24:46;;;;;;;17.98;14.20;;;2.30;95.20;;;;;;4994421;28;20205;-53
2021/01/19 03:27:13;;;;;;;19.90;14.15;;;2.50;95.10;;;;;;4981596;28;20275;-52
2021/01/19 03:29:40;;;;;;;15.73;12.48;;;2.50;95.00;;;;;;4978505;28;20238;-51
2021/01/19 03:32:06;;;;;;;13.23;11.32;;;2.60;94.90;;;;;;4978501;28;20523;-52
2021/01/19 03:34:33;;;;;;;15.40;11.70;;;2.50;95.00;;;;;;4983876;28;20206;-52
2021/01/19 03:37:00;;;;;;;11.75;9.55;;;2.30;95.40;;;;;;4982706;28;20216;-52
2021/01/19 03:39:27;;;;;;;10.98;9.57;;;2.30;95.70;;;;;;4979519;28;20214;-55
2021/01/19 03:41:54;;;;;;;11.13;9.90;;;2.30;95.80;;;;;;4984734;28;20527;-53
2021/01/19 03:44:20;;;;;;;12.60;9.50;;;2.30;95.70;;;;;;4977841;28;20277;-54
2021/01/19 03:46:47;;;;;;;12.13;9.85;;;2.60;95.70;;;;;;4980760;28;20210;-54
2021/01/19 03:49:13;;;;;;;9.52;8.35;;;2.50;95.40;;;;;;4982685;28;20417;-54
2021/01/19 03:51:40;;;;;;;11.70;8.55;;;2.40;95.50;;;;;;4979780;28;20221;-54
2021/01/19 03:54:07;;;;;;;9.10;7.85;;;2.40;95.70;;;;;;4982145;28;20230;-52
2021/01/19 03:56:33;;;;;;;9.45;7.55;;;2.30;95.60;;;;;;4980291;28;20221;-54
2021/01/19 03:59:00;;;;;;;10.52;9.13;;;2.30;96.10;;;;;;4981130;28;20218;-52
2021/01/19 04:01:26;;;;;;;31.23;18.92;;;2.30;95.80;;;;;;4977571;28;20207;-54
2021/01/19 04:03:53;;;;;;;10.23;7.63;;;2.30;95.90;;;;;;4979172;28;20225;-52
2021/01/19 04:06:20;;;;;;;9.65;8.70;;;2.30;96.00;;;;;;4977568;28;20639;-55
2021/01/19 04:08:46;;;;;;;11.93;8.50;;;2.30;95.90;;;;;;4981627;28;20230;-55
2021/01/19 04:11:13;;;;;;;8.95;8.00;;;2.30;95.80;;;;;;4981396;28;20393;-56
2021/01/19 04:13:39;;;;;;;8.35;7.13;;;2.30;96.00;;;;;;4984549;28;20202;-55
2021/01/19 04:16:06;;;;;;;9.93;7.97;;;2.40;95.90;;;;;;4984253;28;20241;-56
2021/01/19 04:18:33;;;;;;;8.55;6.95;;;2.40;95.90;;;;;;4982565;28;20221;-56
2021/01/19 04:20:59;;;;;;;10.48;9.35;;;2.30;95.90;;;;;;4985592;28;20387;-57
2021/01/19 04:23:27;;;;;;;7.82;6.90;;;2.40;95.90;;;;;;4984733;28;20206;-58
2021/01/19 04:25:53;;;;;;;9.88;6.65;;;2.40;95.90;;;;;;4983263;28;20207;-58
2021/01/19 04:28:20;;;;;;;8.80;7.20;;;2.40;95.90;;;;;;4984291;28;20238;-58
2021/01/19 04:30:47;;;;;;;10.77;9.50;;;2.60;96.00;;;;;;4984381;28;20230;-58
2021/01/19 04:33:14;;;;;;;9.27;8.38;;;2.30;96.10;;;;;;4988272;28;20277;-59
2021/01/19 04:35:44;;;;;;;13.07;10.45;;;2.40;96.00;;;;;;4983014;28;20213;-58
2021/01/19 04:38:11;;;;;;;10.93;8.73;;;2.50;95.90;;;;;;4987505;28;20206;-59
2021/01/19 04:40:38;;;;;;;13.40;10.23;;;2.60;95.80;;;;;;4987602;28;20236;-59
2021/01/19 04:43:05;;;;;;;10.05;8.27;;;2.70;95.70;;;;;;4984541;28;20448;-59
2021/01/19 04:45:35;;;;;;;9.90;8.40;;;2.50;95.50;;;;;;4982179;28;20197;-60
2021/01/19 04:48:02;;;;;;;15.07;8.20;;;2.60;95.60;;;;;;4987799;28;20202;-60
2021/01/19 04:50:29;;;;;;;8.57;7.55;;;2.60;95.50;;;;;;4985190;28;20214;-60
2021/01/19 04:53:01;;;;;;;13.88;8.88;;;2.40;95.60;;;;;;4985683;28;20206;-60
2021/01/19 04:55:33;;;;;;;10.05;8.68;;;2.50;95.70;;;;;;4982568;28;20217;-60
2021/01/19 04:58:02;;;;;;;10.18;8.82;;;2.70;95.60;;;;;;4984347;28;20460;-60
2021/01/19 05:00:36;;;;;;;8.90;7.88;;;2.70;95.40;;;;;;4981612;28;20282;-60
2021/01/19 05:03:22;;;;;;;9.38;7.70;;;2.70;95.30;;;;;;4981137;28;20319;-60
2021/01/19 05:05:55;;;;;;;10.90;8.40;;;2.60;95.10;;;;;;4983236;28;20238;-60
2021/01/19 05:08:24;;;;;;;10.23;8.40;;;2.50;95.50;;;;;;4981313;28;20249;-60
2021/01/19 05:10:55;;;;;;;8.02;7.25;;;2.60;95.50;;;;;;4981927;28;20218;-60
2021/01/19 05:13:50;;;;;;;9.35;8.35;;;2.70;95.50;;;;;;4981365;28;20250;-60
2021/01/19 05:16:29;;;;;;;11.07;7.82;;;2.80;95.30;;;;;;4985884;28;20215;-61
2021/01/19 05:18:57;;;;;;;11.05;9.45;;;3.00;95.10;;;;;;4983543;28;20214;-61
2021/01/19 05:21:24;;;;;;;15.82;10.23;;;3.00;94.90;;;;;;4981556;28;20538;-61
2021/01/19 05:23:51;;;;;;;13.75;9.20;;;3.00;94.80;;;;;;4982284;28;20489;-61
2021/01/19 05:26:18;;;;;;;13.27;9.20;;;2.90;94.70;;;;;;4989060;28;20220;-61
2021/01/19 05:28:51;;;;;;;12.43;9.63;;;3.00;94.90;;;;;;4986350;28;20245;-60
2021/01/19 05:31:20;;;;;;;12.25;8.73;;;3.00;94.90;;;;;;4981673;28;20209;-60
2021/01/19 05:33:53;;;;;;;11.90;10.02;;;3.10;94.70;;;;;;4982734;28;20210;-60
2021/01/19 05:36:34;;;;;;;17.83;11.90;;;3.10;94.60;;;;;;4987264;28;20534;-60
2021/01/19 05:39:02;;;;;;;19.40;11.98;;;3.00;94.60;;;;;;4984181;28;20277;-60
2021/01/19 05:41:35;;;;;;;15.57;10.82;;;3.20;94.50;;;;;;4985145;28;20207;-60
2021/01/19 05:44:29;;;;;;;13.43;10.30;;;3.20;94.40;;;;;;4984153;28;20245;-60
2021/01/19 05:46:59;;;;;;;12.85;11.45;;;3.20;94.30;;;;;;4985601;28;20211;-59
2021/01/19 05:49:27;;;;;;;16.85;12.20;;;3.30;94.60;;;;;;4986673;28;20231;-59
2021/01/19 05:52:03;;;;;;;21.60;15.00;;;3.40;94.10;;;;;;4991927;28;20210;-59
2021/01/19 05:54:35;;;;;;;18.15;14.90;;;3.30;93.90;;;;;;4985644;28;20202;-59
2021/01/19 05:57:07;;;;;;;22.95;13.00;;;3.40;93.80;;;;;;4987862;28;20215;-60
2021/01/19 05:59:37;;;;;;;20.65;12.10;;;3.60;93.70;;;;;;4982789;28;20207;-60
2021/01/19 06:02:06;;;;;;;17.85;11.40;;;3.50;93.50;;;;;;4986690;28;20213;-60
2021/01/19 06:04:38;;;;;;;18.80;12.82;;;3.40;93.60;;;;;;4989749;28;20504;-60
2021/01/19 06:07:05;;;;;;;16.05;11.88;;;3.40;93.60;;;;;;4991762;28;20245;-59
2021/01/19 06:09:33;;;;;;;14.57;11.00;;;3.40;93.60;;;;;;4984204;28;20245;-58
2021/01/19 06:12:00;;;;;;;16.17;10.80;;;3.40;93.60;;;;;;4982906;28;20249;-59
2021/01/19 06:14:28;;;;;;;12.93;10.20;;;3.40;93.60;;;;;;4979166;28;20195;-59
2021/01/19 06:17:06;;;;;;;16.98;11.52;;;3.40;93.60;;;;;;4985876;28;20229;-59
2021/01/19 06:19:34;;;;;;;13.98;11.07;;;3.30;93.80;;;;;;4984951;28;20224;-58
2021/01/19 06:22:08;;;;;;;30.27;11.65;;;3.60;93.80;;;;;;4992299;28;20529;-60
2021/01/19 06:24:50;;;;;;;13.10;11.15;;;3.30;93.60;;;;;;4992574;28;20210;-59
2021/01/19 06:27:22;;;;;;;15.63;12.25;;;3.30;93.60;;;;;;4988320;28;20213;-60
2021/01/19 06:30:01;;;;;;;24.88;13.57;;;3.20;93.70;;;;;;4997362;28;20229;-60
2021/01/19 06:32:30;;;;;;;19.48;13.13;;;3.30;93.50;;;;;;4989446;28;20774;-59
2021/01/19 06:35:08;;;;;;;20.60;15.38;;;3.40;93.80;;;;;;4998028;28;20213;-60
2021/01/19 06:37:35;;;;;;;21.65;15.82;;;3.30;93.70;;;;;;5005707;28;20213;-59
2021/01/19 06:40:05;;;;;;;20.13;14.35;;;3.20;93.60;;;;;;4996081;28;20409;-60
2021/01/19 06:42:35;;;;;;;23.13;12.88;;;3.30;94.10;;;;;;4995767;28;20216;-60
2021/01/19 06:45:08;;;;;;;17.25;13.93;;;3.60;93.50;;;;;;4998004;28;20206;-60
2021/01/19 06:47:52;;;;;;;18.67;13.45;;;3.50;93.10;;;;;;4998033;28;20501;-60
2021/01/19 06:50:25;;;;;;;16.15;13.52;;;3.50;93.20;;;;;;4989573;28;20289;-60
2021/01/19 06:53:06;;;;;;;20.38;14.77;;;3.60;93.00;;;;;;4989186;28;20206;-59
2021/01/19 06:55:43;;;;;;;19.52;13.98;;;3.70;93.00;;;;;;4999423;28;20214;-59
2021/01/19 06:58:39;;;;;;;25.30;15.32;;;3.70;92.90;;;;;;4996982;28;20241;-60
2021/01/19 07:01:12;;;;;;;18.17;14.38;;;3.70;92.80;;;;;;4996220;28;20210;-59
2021/01/19 07:03:42;;;;;;;18.58;15.95;;;3.80;92.70;;;;;;4992340;28;20218;-60
2021/01/19 07:06:10;;;;;;;22.88;14.63;;;3.80;92.60;;;;;;4988219;28;20215;-60
2021/01/19 07:08:59;;;;;;;24.92;14.73;;;3.80;92.60;;;;;;4990087;28;20741;-60
2021/01/19 07:11:38;;;;;;;25.58;15.23;;;3.80;92.60;;;;;;4984840;28;20262;-60
2021/01/19 07:14:13;;;;;;;20.08;16.35;;;3.90;92.60;;;;;;4969174;28;20540;-60
2021/01/19 07:16:57;;;;;;;19.08;14.48;;;3.90;92.40;;;;;;4993485;28;20257;-60
2021/01/19 07:19:38;;;;;;;19.67;14.63;;;3.90;92.60;;;;;;4984071;28;20225;-60
2021/01/19 07:22:12;;;;;;;20.00;15.35;;;3.80;92.50;;;;;;4995534;28;20206;-60
2021/01/19 07:24:46;;;;;;;20.75;12.73;;;4.00;92.60;;;;;;4985703;28;20530;-60
2021/01/19 07:27:21;;;;;;;16.85;13.85;;;4.10;92.20;;;;;;4991149;28;20205;-60
2021/01/19 07:29:50;;;;;;;20.80;15.10;;;4.20;91.90;;;;;;4990588;28;20412;-60
2021/01/19 07:32:31;;;;;;;21.38;17.23;;;4.30;91.70;;;;;;4996471;28;20218;-61
2021/01/19 07:35:02;;;;;;;21.42;15.93;;;4.20;91.80;;;;;;4993453;28;20254;-61
2021/01/19 07:37:31;;;;;;;23.95;15.18;;;4.10;91.90;;;;;;4994558;28;20210;-61
2021/01/19 07:39:59;;;;;;;21.45;13.88;;;4.10;91.90;;;;;;4994472;28;20282;-60
2021/01/19 07:42:31;;;;;;;25.77;16.67;;;4.20;91.90;;;;;;4988276;28;20274;-60
2021/01/19 07:45:00;;;;;;;24.83;16.95;;;4.20;91.90;;;;;;5001497;28;20282;-62
2021/01/19 07:47:35;;;;;;;21.23;16.15;;;4.20;91.90;;;;;;4999030;28;20405;-61
2021/01/19 07:50:11;;;;;;;25.08;16.17;;;4.10;92.20;;;;;;4999733;28;20256;-61
2021/01/19 07:52:42;;;;;;;26.60;16.00;;;3.90;92.00;;;;;;4998359;28;20214;-60
2021/01/19 07:55:23;;;;;;;38.33;22.42;;;4.00;92.00;;;;;;5000438;28;20207;-60
2021/01/19 07:57:52;;;;;;;30.67;18.10;;;4.00;91.90;;;;;;4993504;28;20206;-61
2021/01/19 08:00:24;;;;;;;27.90;17.13;;;4.10;91.80;;;;;;4996746;28;20215;-60
2021/01/19 08:03:05;;;;;;;22.42;14.82;;;4.30;91.60;;;;;;4985787;28;20238;-60
2021/01/19 08:05:33;;;;;;;19.10;13.40;;;4.30;91.20;;;;;;4985554;28;20395;-59
2021/01/19 08:08:00;;;;;;;20.58;13.93;;;4.20;91.20;;;;;;4988451;28;20218;-59
2021/01/19 08:10:34;;;;;;;21.52;15.13;;;4.10;91.50;;;;;;4984995;28;20242;-59
2021/01/19 08:13:02;;;;;;;18.00;13.13;;;4.20;91.60;;;;;;4985619;28;20303;-59
2021/01/19 08:15:31;;;;;;;16.48;13.15;;;4.30;91.40;;;;;;4983093;28;20251;-59
2021/01/19 08:18:00;;;;;;;21.83;12.93;;;4.30;91.10;;;;;;4993507;28;20216;-60
2021/01/19 08:20:37;;;;;;;17.60;14.02;;;4.50;90.90;;;;;;4985528;28;20303;-60
2021/01/19 08:23:17;;;;;;;17.42;12.27;;;4.30;90.50;;;;;;4983531;28;20234;-60
2021/01/19 08:25:44;;;;;;;15.60;11.07;;;4.40;90.80;;;;;;4987148;28;20368;-60
2021/01/19 08:28:13;;;;;;;15.38;11.50;;;4.40;90.70;;;;;;4991722;28;20208;-60
2021/01/19 08:30:40;;;;;;;12.55;11.23;;;4.60;90.40;;;;;;4995342;28;20483;-60
2021/01/19 08:33:08;;;;;;;17.70;12.45;;;4.70;90.10;;;;;;5000208;28;20208;-60
2021/01/19 08:35:38;;;;;;;27.45;11.65;;;4.70;89.60;;;;;;5000137;28;20285;-60
2021/01/19 08:38:05;;;;;;;16.58;13.13;;;4.80;88.90;;;;;;5000530;28;20274;-60
2021/01/19 08:40:35;;;;;;;18.05;12.68;;;4.70;88.80;;;;;;4994781;28;20212;-60
2021/01/19 08:43:05;;;;;;;16.30;12.20;;;4.80;89.00;;;;;;4992762;28;20503;-61
2021/01/19 08:45:35;;;;;;;17.73;13.20;;;4.90;88.40;;;;;;4997799;28;20288;-62
2021/01/19 08:48:03;;;;;;;17.95;11.73;;;4.90;87.80;;;;;;4997923;28;20409;-60
2021/01/19 08:50:34;;;;;;;18.08;13.07;;;4.90;87.70;;;;;;4988026;28;20282;-61
2021/01/19 08:53:10;;;;;;;20.25;13.45;;;4.90;88.10;;;;;;4991876;28;20242;-60
2021/01/19 08:55:42;;;;;;;20.17;14.15;;;4.70;88.00;;;;;;4995738;28;20326;-60
2021/01/19 08:58:18;;;;;;;18.13;12.95;;;4.80;87.80;;;;;;4996275;28;20264;-61
2021/01/19 09:00:45;;;;;;;14.70;11.77;;;4.90;87.80;;;;;;4987771;28;20204;-61
2021/01/19 09:03:14;;;;;;;22.88;16.48;;;5.00;86.80;;;;;;4990038;28;20379;-61
2021/01/19 09:06:12;;;;;;;23.15;14.93;;;5.20;86.30;;;;;;4987846;28;20542;-60
2021/01/19 09:08:43;;;;;;;22.30;14.02;;;5.40;85.80;;;;;;4990020;28;20454;-60
2021/01/19 09:11:10;;;;;;;21.45;14.45;;;5.40;84.80;;;;;;4994761;28;20209;-61
2021/01/19 09:13:50;;;;;;;22.65;13.55;;;5.20;85.40;;;;;;4991935;28;20535;-59
2021/01/19 09:16:25;;;;;;;17.42;14.30;;;5.20;84.70;;;;;;5000159;28;20270;-60
2021/01/19 09:18:57;;;;;;;19.33;14.40;;;5.30;84.50;;;;;;4991719;28;20705;-59
2021/01/19 09:21:24;;;;;;;21.45;15.60;;;5.30;84.70;;;;;;4989127;28;20263;-59
2021/01/19 09:23:52;;;;;;;17.65;12.13;;;5.30;84.40;;;;;;4993703;28;20220;-59
2021/01/19 09:26:19;;;;;;;20.17;13.25;;;5.50;83.80;;;;;;4993306;28;20273;-59
2021/01/19 09:28:46;;;;;;;17.80;12.55;;;5.50;83.60;;;;;;4990844;28;20236;-59
2021/01/19 09:31:17;;;;;;;20.15;12.38;;;5.50;83.10;;;;;;4986236;28;20212;-60
2021/01/19 09:33:46;;;;;;;14.60;11.80;;;5.50;83.20;;;;;;5001681;28;20560;-59
2021/01/19 09:36:14;;;;;;;16.30;11.80;;;5.70;82.70;;;;;;4982740;28;20215;-58
2021/01/19 09:38:43;;;;;;;15.55;11.88;;;5.90;82.50;;;;;;4983881;28;20528;-58
2021/01/19 09:41:18;;;;;;;12.73;10.30;;;6.00;81.50;;;;;;4983690;28;20237;-59
2021/01/19 09:43:50;;;;;;;10.50;9.27;;;6.00;81.10;;;;;;4999386;28;20219;-59
2021/01/19 09:46:20;;;;;;;16.63;12.35;;;5.80;80.70;;;;;;4990402;28;20213;-59
2021/01/19 09:48:50;;;;;;;12.23;10.63;;;5.70;81.10;;;;;;4996657;28;20303;-59
2021/01/19 09:51:24;;;;;;;14.45;11.18;;;5.70;82.00;;;;;;4995393;28;20210;-59
2021/01/19 09:53:59;;;;;;;17.30;13.18;;;5.90;81.00;;;;;;4994791;28;20515;-60
2021/01/19 09:56:27;;;;;;;15.40;11.15;;;6.20;80.40;;;;;;4997757;28;20208;-60
2021/01/19 09:59:05;;;;;;;13.32;10.70;;;6.30;79.80;;;;;;4996039;28;20395;-60
2021/01/19 10:01:32;;;;;;;16.83;11.32;;;6.30;79.10;;;;;;4997956;28;20223;-59
2021/01/19 10:04:00;;;;;;;15.32;11.93;;;6.40;79.30;;;;;;4998522;28;20251;-59
2021/01/19 10:06:27;;;;;;;18.98;13.32;;;6.40;79.00;;;;;;4987651;28;20619;-60
2021/01/19 10:08:54;;;;;;;12.90;10.90;;;6.40;78.80;;;;;;4992007;28;20551;-59
2021/01/19 10:11:34;;;;;;;17.30;11.93;;;6.30;79.00;;;;;;4987631;28;20206;-60
2021/01/19 10:14:15;;;;;;;14.45;11.75;;;5.90;79.30;;;;;;4998050;28;20492;-60
2021/01/19 10:16:48;;;;;;;21.98;12.40;;;6.20;79.80;;;;;;4996708;28;20506;-60
2021/01/19 10:19:23;;;;;;;18.42;13.77;;;6.10;78.90;;;;;;4990376;28;20213;-60
2021/01/19 10:21:54;;;;;;;15.48;12.38;;;5.70;80.50;;;;;;4998828;28;20220;-60
2021/01/19 10:24:22;;;;;;;12.40;10.25;;;5.70;81.50;;;;;;4989178;28;20545;-59
2021/01/19 10:27:02;;;;;;;13.13;10.80;;;5.60;80.40;;;;;;4987491;28;20201;-59
2021/01/19 10:29:34;;;;;;;14.15;10.32;;;5.80;81.20;;;;;;4996437;28;20300;-59
2021/01/19 10:32:02;;;;;;;15.73;10.70;;;6.30;79.00;;;;;;4991611;28;20279;-59
2021/01/19 10:34:33;;;;;;;16.15;11.25;;;6.40;78.00;;;;;;4996935;28;20206;-58
2021/01/19 10:37:01;;;;;;;23.73;13.63;;;6.20;78.00;;;;;;4993951;28;20281;-59
2021/01/19 10:39:30;;;;;;;17.52;12.80;;;6.20;78.00;;;;;;4994379;28;20223;-60
2021/01/19 10:41:58;;;;;;;16.58;13.55;;;6.00;79.00;;;;;;4988993;28;20225;-59
2021/01/19 10:44:26;;;;;;;15.07;11.63;;;6.10;79.40;;;;;;4987892;28;20214;-60
2021/01/19 10:47:00;;;;;;;11.70;10.35;;;6.40;78.20;;;;;;4995857;28;20331;-60
2021/01/19 10:49:29;;;;;;;16.88;11.23;;;6.10;77.60;;;;;;4992044;28;20560;-59
2021/01/19 10:51:57;;;;;;;15.00;11.40;;;7.00;79.00;;;;;;4988973;28;20399;-59
2021/01/19 10:54:26;;;;;;;18.52;13.52;;;5.90;78.30;;;;;;4987417;28;20217;-59
2021/01/19 10:57:08;;;;;;;18.38;12.93;;;5.70;78.90;;;;;;4998606;28;20528;-60
2021/01/19 10:59:36;;;;;;;14.30;11.15;;;5.70;79.70;;;;;;4992221;28;20279;-60
2021/01/19 11:02:04;;;;;;;18.65;12.48;;;6.00;79.80;;;;;;4988396;28;20215;-60
2021/01/19 11:04:34;;;;;;;15.70;12.30;;;6.30;78.50;;;;;;4984222;28;20232;-61
2021/01/19 11:07:01;;;;;;;13.57;11.77;;;6.30;78.00;;;;;;4981728;28;20277;-61
2021/01/19 11:09:28;;;;;;;16.40;11.68;;;6.00;78.10;;;;;;4993009;28;20619;-61
2021/01/19 11:11:55;;;;;;;17.23;11.93;;;6.10;78.60;;;;;;4996305;28;20423;-61
2021/01/19 11:14:22;;;;;;;15.27;11.98;;;6.20;78.20;;;;;;4994469;28;20209;-61
2021/01/19 11:16:48;;;;;;;17.15;12.30;;;5.80;78.80;;;;;;4990352;28;20219;-61
2021/01/19 11:19:15;;;;;;;15.55;12.43;;;5.70;79.90;;;;;;4987076;28;20440;-60
2021/01/19 11:21:42;;;;;;;18.63;14.18;;;5.80;80.10;;;;;;4980781;28;20217;-61
2021/01/19 11:24:11;;;;;;;16.92;12.75;;;6.20;79.10;;;;;;4978430;28;20500;-61
2021/01/19 11:26:40;;;;;;;16.40;13.55;;;6.30;77.40;;;;;;4991586;28;20218;-61
2021/01/19 11:29:13;;;;;;;14.25;11.90;;;6.30;77.70;;;;;;4985504;28;20233;-61
2021/01/19 11:31:39;;;;;;;15.32;11.88;;;6.20;78.20;;;;;;4977733;28;20209;-60
2021/01/19 11:34:08;;;;;;;15.60;12.05;;;6.00;78.70;;;;;;4981672;28;20210;-62
2021/01/19 11:36:39;;;;;;;16.42;11.50;;;5.80;79.70;;;;;;4992490;28;20663;-61
2021/01/19 11:39:08;;;;;;;19.58;12.00;;;5.70;80.10;;;;;;4995711;28;20245;-60
2021/01/19 11:41:36;;;;;;;15.18;11.60;;;5.70;79.90;;;;;;4994813;28;20269;-61
2021/01/19 11:44:05;;;;;;;21.13;12.23;;;6.00;79.60;;;;;;4994613;28;20265;-62
2021/01/19 11:46:32;;;;;;;14.43;10.95;;;6.10;78.80;;;;;;4994374;28;20277;-61
2021/01/19 11:49:02;;;;;;;17.02;11.32;;;6.20;77.90;;;;;;4994829;28;20239;-61
2021/01/19 11:51:34;;;;;;;21.63;14.73;;;6.40;77.50;;;;;;4995214;28;20404;-61
2021/01/19 11:54:04;;;;;;;13.10;11.70;;;6.10;78.30;;;;;;4996364;28;20215;-61
2021/01/19 11:56:50;;;;;;;14.77;11.80;;;5.90;79.00;;;;;;4993527;28;20232;-61
2021/01/19 11:59:17;;;;;;;15.95;11.77;;;6.00;79.50;;;;;;4994458;28;20209;-60
2021/01/19 12:01:43;;;;;;;15.48;11.27;;;5.80;79.50;;;;;;4994955;28;20209;-61
2021/01/19 12:04:11;;;;;;;15.15;12.45;;;5.90;80.10;;;;;;4996058;28;20225;-60
2021/01/19 12:06:40;;;;;;;16.20;12.88;;;5.90;79.70;;;;;;4995532;28;20232;-62
2021/01/19 12:09:08;;;;;;;15.75;12.32;;;5.70;79.90;;;;;;4994099;28;20253;-61
2021/01/19 12:11:41;;;;;;;14.15;11.98;;;5.80;80.00;;;;;;4993518;28;20303;-61
2021/01/19 12:14:08;;;;;;;15.18;12.30;;;5.90;79.80;;;;;;4985119;28;20304;-61
2021/01/19 12:16:35;;;;;;;12.13;10.82;;;5.90;79.70;;;;;;4981806;28;20531;-61
2021/01/19 12:19:09;;;;;;;14.20;11.43;;;5.80;79.60;;;;;;4986260;28;20238;-61
2021/01/19 12:21:37;;;;;;;18.80;13.98;;;5.90;79.40;;;;;;4997031;28;20238;-60
2021/01/19 12:24:07;;;;;;;18.83;14.75;;;6.00;79.50;;;;;;4996641;28;20212;-61
2021/01/19 12:26:34;;;;;;;31.33;18.30;;;5.90;78.80;;;;;;4996922;28;20292;-61
2021/01/19 12:29:00;;;;;;;23.33;16.70;;;5.60;79.90;;;;;;4990466;28;20285;-60
2021/01/19 12:31:27;;;;;;;22.48;16.10;;;5.60;80.70;;;;;;4993874;28;20251;-60
2021/01/19 12:33:53;;;;;;;29.67;19.42;;;5.50;80.90;;;;;;4996708;28;20198;-60
2021/01/19 12:36:20;;;;;;;20.52;15.38;;;5.30;81.60;;;;;;4993985;28;20209;-60
2021/01/19 12:38:47;;;;;;;16.67;13.88;;;5.10;82.60;;;;;;4998045;28;20213;-60
2021/01/19 12:41:17;;;;;;;17.45;11.68;;;5.10;82.50;;;;;;4990610;28;20223;-59
2021/01/19 12:43:44;;;;;;;13.80;12.40;;;5.00;81.80;;;;;;4997804;28;20220;-60
2021/01/19 12:46:12;;;;;;;15.98;13.27;;;5.10;82.20;;;;;;4994317;28;20352;-61
2021/01/19 12:48:39;;;;;;;14.35;11.60;;;4.90;82.60;;;;;;5001663;28;20216;-61
2021/01/19 12:51:13;;;;;;;14.00;12.45;;;5.00;82.50;;;;;;4998280;28;20232;-61
2021/01/19 12:53:39;;;;;;;21.58;16.90;;;5.00;83.10;;;;;;4999229;28;20248;-60
2021/01/19 12:56:10;;;;;;;17.95;14.40;;;4.90;82.30;;;;;;4994173;28;20212;-61